createdAt,value
2018-02-16T00:00:08.077Z,4.40
2018-02-16T00:02:35.579Z,4.30
2018-02-16T00:05:03.828Z,4.30
2018-02-16T00:07:31.321Z,4.30
2018-02-16T00:09:59.681Z,4.30
2018-02-16T00:12:27.920Z,4.40
2018-02-16T00:14:55.392Z,4.40
2018-02-16T00:17:22.890Z,4.40
2018-02-16T00:19:50.432Z,4.40
2018-02-16T00:22:18.673Z,4.40
2018-02-16T00:24:46.169Z,4.40
2018-02-16T00:27:14.409Z,4.40
2018-02-16T00:29:41.878Z,4.40
2018-02-16T00:32:09.460Z,4.40
2018-02-16T00:34:37.700Z,4.40
2018-02-16T00:37:05.169Z,4.40
2018-02-16T00:39:32.745Z,4.30
2018-02-16T00:42:01.024Z,4.30
2018-02-16T00:44:29.550Z,4.30
2018-02-16T00:46:57.050Z,4.30
2018-02-16T00:49:24.529Z,4.30
2018-02-16T00:51:52.770Z,4.30
2018-02-16T00:54:21.792Z,4.20
2018-02-16T00:56:49.281Z,4.20
2018-02-16T00:59:17.000Z,4.20
2018-02-16T01:01:44.497Z,4.30
2018-02-16T01:04:11.970Z,4.40
2018-02-16T01:06:39.441Z,4.40
2018-02-16T01:09:06.936Z,4.50
2018-02-16T01:11:35.177Z,4.60
2018-02-16T01:14:02.650Z,4.60
2018-02-16T01:16:30.148Z,4.60
2018-02-16T01:18:57.621Z,4.50
2018-02-16T01:21:25.144Z,4.60
2018-02-16T01:23:53.405Z,4.70
2018-02-16T01:26:20.880Z,4.70
2018-02-16T01:28:49.124Z,4.70
2018-02-16T01:31:16.748Z,4.70
2018-02-16T01:33:44.269Z,4.70
2018-02-16T01:36:13.109Z,4.70
2018-02-16T01:38:40.603Z,4.70
2018-02-16T01:41:08.077Z,4.70
2018-02-16T01:43:36.321Z,4.80
2018-02-16T01:46:03.904Z,4.80
2018-02-16T01:48:32.181Z,4.80
2018-02-16T01:51:00.741Z,4.90
2018-02-16T01:53:28.232Z,4.90
2018-02-16T01:55:56.501Z,4.90
2018-02-16T01:58:24.737Z,4.90
2018-02-16T02:00:52.228Z,4.90
2018-02-16T02:03:20.506Z,4.90
2018-02-16T02:05:48.780Z,4.90
2018-02-16T02:08:17.041Z,4.90
2018-02-16T02:10:45.280Z,4.90
2018-02-16T02:13:12.791Z,4.90
2018-02-16T02:15:41.053Z,4.80
2018-02-16T02:18:08.552Z,4.80
2018-02-16T02:20:36.041Z,4.70
2018-02-16T02:23:03.641Z,4.60
2018-02-16T02:25:31.916Z,4.50
2018-02-16T02:28:00.159Z,4.40
2018-02-16T02:30:27.657Z,4.40
2018-02-16T02:32:55.897Z,4.50
2018-02-16T02:35:23.374Z,4.50
2018-02-16T02:37:50.865Z,4.50
2018-02-16T02:40:18.338Z,4.40
2018-02-16T02:42:45.822Z,4.40
2018-02-16T02:45:13.321Z,4.40
2018-02-16T02:47:41.561Z,4.30
2018-02-16T02:50:09.393Z,4.40
2018-02-16T02:52:36.928Z,4.40
2018-02-16T02:55:04.403Z,4.40
2018-02-16T02:57:31.877Z,4.40
2018-02-16T02:59:59.403Z,4.40
2018-02-16T03:02:26.874Z,4.30
2018-02-16T03:04:54.348Z,4.30
2018-02-16T03:07:21.841Z,4.40
2018-02-16T03:09:50.129Z,4.30
2018-02-16T03:12:18.405Z,4.30
2018-02-16T03:14:46.665Z,4.40
2018-02-16T03:17:14.577Z,4.40
2018-02-16T03:19:42.109Z,4.50
2018-02-16T03:22:10.369Z,4.50
2018-02-16T03:24:37.845Z,4.40
2018-02-16T03:27:06.108Z,4.50
2018-02-16T03:29:33.596Z,4.50
2018-02-16T03:32:01.073Z,4.50
2018-02-16T03:34:28.594Z,4.40
2018-02-16T03:36:56.860Z,4.50
2018-02-16T03:39:24.349Z,4.40
2018-02-16T03:41:51.822Z,4.50
2018-02-16T03:44:19.313Z,4.60
2018-02-16T03:46:46.893Z,4.60
2018-02-16T03:49:15.169Z,4.50
2018-02-16T03:51:43.428Z,4.40
2018-02-16T03:54:11.003Z,4.40
2018-02-16T03:56:39.245Z,4.50
2018-02-16T03:59:06.745Z,4.50
2018-02-16T04:01:34.984Z,4.60
2018-02-16T04:04:02.461Z,4.60
2018-02-16T04:06:29.954Z,4.60
2018-02-16T04:08:57.429Z,4.60
2018-02-16T04:11:24.944Z,4.50
2018-02-16T04:13:53.205Z,4.60
2018-02-16T04:16:20.676Z,4.60
2018-02-16T04:18:48.948Z,4.60
2018-02-16T04:21:17.208Z,4.60
2018-02-16T04:23:44.681Z,4.60
2018-02-16T04:26:12.922Z,4.60
2018-02-16T04:28:41.298Z,4.60
2018-02-16T04:31:10.164Z,4.60
2018-02-16T04:33:37.786Z,4.60
2018-02-16T04:36:06.044Z,4.60
2018-02-16T04:38:35.025Z,4.60
2018-02-16T04:41:02.497Z,4.60
2018-02-16T04:43:29.993Z,4.50
2018-02-16T04:45:57.525Z,4.30
2018-02-16T04:48:25.761Z,4.20
2018-02-16T04:50:53.256Z,4.20
2018-02-16T04:53:21.493Z,4.20
2018-02-16T04:55:48.968Z,4.10
2018-02-16T04:58:16.548Z,4.20
2018-02-16T05:00:44.790Z,4.30
2018-02-16T05:03:12.261Z,4.20
2018-02-16T05:05:39.757Z,4.30
2018-02-16T05:08:07.228Z,4.30
2018-02-16T05:10:34.702Z,4.30
2018-02-16T05:13:02.213Z,4.30
2018-02-16T05:15:30.489Z,4.40
2018-02-16T05:17:58.728Z,4.50
2018-02-16T05:20:26.225Z,4.50
2018-02-16T05:22:53.717Z,4.30
2018-02-16T05:25:21.193Z,4.20
2018-02-16T05:27:48.689Z,4.20
2018-02-16T05:30:16.933Z,4.30
2018-02-16T05:32:44.409Z,4.30
2018-02-16T05:35:12.129Z,4.40
2018-02-16T05:37:39.605Z,4.40
2018-02-16T05:40:07.076Z,4.40
2018-02-16T05:42:34.661Z,4.30
2018-02-16T05:45:02.944Z,4.30
2018-02-16T05:47:31.189Z,4.30
2018-02-16T05:49:59.249Z,4.30
2018-02-16T05:52:26.725Z,4.30
2018-02-16T05:54:55.701Z,4.40
2018-02-16T05:57:23.196Z,4.40
2018-02-16T05:59:51.464Z,4.40
2018-02-16T06:02:19.740Z,4.50
2018-02-16T06:04:48.028Z,4.50
2018-02-16T06:07:16.293Z,4.60
2018-02-16T06:09:44.534Z,4.60
2018-02-16T06:12:12.273Z,4.60
2018-02-16T06:14:39.799Z,4.60
2018-02-16T06:17:08.045Z,4.60
2018-02-16T06:19:35.536Z,4.70
2018-02-16T06:22:03.800Z,4.60
2018-02-16T06:24:32.091Z,4.70
2018-02-16T06:26:59.881Z,4.70
2018-02-16T06:29:27.373Z,4.70
2018-02-16T06:31:54.865Z,4.70
2018-02-16T06:34:23.370Z,4.70
2018-02-16T06:36:50.845Z,4.60
2018-02-16T06:39:18.325Z,4.60
2018-02-16T06:41:45.824Z,4.60
2018-02-16T06:44:13.333Z,4.60
2018-02-16T06:46:40.812Z,4.60
2018-02-16T06:49:08.310Z,4.60
2018-02-16T06:51:35.785Z,4.60
2018-02-16T06:54:03.268Z,4.70
2018-02-16T06:56:30.770Z,4.70
2018-02-16T06:58:58.242Z,4.60
2018-02-16T07:01:25.749Z,4.70
2018-02-16T07:03:54.183Z,4.40
2018-02-16T07:06:21.705Z,4.50
2018-02-16T07:08:49.961Z,4.30
2018-02-16T07:11:18.252Z,4.40
2018-02-16T07:13:46.489Z,4.40
2018-02-16T07:16:13.964Z,4.40
2018-02-16T07:18:41.693Z,4.30
2018-02-16T07:21:09.289Z,4.30
2018-02-16T07:23:36.772Z,4.40
2018-02-16T07:26:05.034Z,4.50
2018-02-16T07:28:32.601Z,4.50
2018-02-16T07:31:00.919Z,4.50
2018-02-16T07:33:28.388Z,4.50
2018-02-16T07:35:55.868Z,4.40
2018-02-16T07:38:24.860Z,4.50
2018-02-16T07:40:52.444Z,4.50
2018-02-16T07:43:20.708Z,4.60
2018-02-16T07:45:48.184Z,4.60
2018-02-16T07:48:16.448Z,4.80
2018-02-16T07:50:44.689Z,4.90
2018-02-16T07:53:12.161Z,4.80
2018-02-16T07:55:39.653Z,4.90
2018-02-16T07:58:07.930Z,5.10
2018-02-16T08:00:35.421Z,5.10
2018-02-16T08:03:02.909Z,5.10
2018-02-16T08:05:30.543Z,5.20
2018-02-16T08:07:58.157Z,5.20
2018-02-16T08:10:25.713Z,5.20
2018-02-16T08:12:53.957Z,5.30
2018-02-16T08:15:21.433Z,5.30
2018-02-16T08:17:49.352Z,5.30
2018-02-16T08:20:16.865Z,5.40
2018-02-16T08:22:45.425Z,5.50
2018-02-16T08:25:12.917Z,5.40
2018-02-16T08:27:41.433Z,5.50
2018-02-16T08:30:08.910Z,5.50
2018-02-16T08:32:36.406Z,5.60
2018-02-16T08:35:04.641Z,5.70
2018-02-16T08:37:32.117Z,5.70
2018-02-16T08:39:59.609Z,5.80
2018-02-16T08:42:27.097Z,5.80
2018-02-16T08:44:54.609Z,5.90
2018-02-16T08:47:22.873Z,6.10
2018-02-16T08:49:50.350Z,6.10
2018-02-16T08:52:18.592Z,6.20
2018-02-16T08:54:46.177Z,6.20
2018-02-16T08:57:14.425Z,6.20
2018-02-16T08:59:41.901Z,6.20
2018-02-16T09:02:10.165Z,6.60
2018-02-16T09:04:37.645Z,6.60
2018-02-16T09:07:05.201Z,7.20
2018-02-16T09:09:33.465Z,7.90
2018-02-16T09:12:01.039Z,7.90
2018-02-16T09:14:29.287Z,8.10
2018-02-16T09:16:56.781Z,8.10
2018-02-16T09:19:25.045Z,8.10
2018-02-16T09:21:53.290Z,8.20
2018-02-16T09:24:20.785Z,8.20
2018-02-16T09:26:49.029Z,8.30
2018-02-16T09:29:16.505Z,8.30
2018-02-16T09:31:44.785Z,8.30
2018-02-16T09:34:13.060Z,8.50
2018-02-16T09:36:43.456Z,8.60
2018-02-16T09:39:11.713Z,8.60
2018-02-16T09:41:39.192Z,8.70
2018-02-16T09:44:06.669Z,8.70
2018-02-16T09:46:35.682Z,8.50
2018-02-16T09:49:03.923Z,8.60
2018-02-16T09:51:31.396Z,8.60
2018-02-16T09:53:59.665Z,8.80
2018-02-16T09:56:27.901Z,8.90
2018-02-16T09:58:55.369Z,8.90
2018-02-16T10:01:22.968Z,9.00
2018-02-16T10:03:51.489Z,9.10
2018-02-16T10:06:18.957Z,9.10
2018-02-16T10:08:46.445Z,9.00
2018-02-16T10:11:13.956Z,8.80
2018-02-16T10:13:41.728Z,8.70
2018-02-16T10:16:09.221Z,8.70
2018-02-16T10:18:36.692Z,8.70
2018-02-16T10:21:04.939Z,8.50
2018-02-16T10:23:32.437Z,8.50
2018-02-16T10:26:00.669Z,8.50
2018-02-16T10:28:28.145Z,8.50
2018-02-16T10:30:55.641Z,8.50
2018-02-16T10:33:23.191Z,8.50
2018-02-16T10:35:51.429Z,8.60
2018-02-16T10:38:19.009Z,8.60
2018-02-16T10:40:46.822Z,8.90
2018-02-16T10:43:14.296Z,9.00
2018-02-16T10:45:41.791Z,9.20
2018-02-16T10:48:10.033Z,9.90
2018-02-16T10:50:37.508Z,9.90
2018-02-16T10:53:06.521Z,10.80
2018-02-16T10:55:34.981Z,11.30
2018-02-16T10:58:03.718Z,11.70
2018-02-16T11:00:37.744Z,12.00
2018-02-16T11:03:10.984Z,11.90
2018-02-16T11:05:44.104Z,12.30
2018-02-16T11:08:17.428Z,12.70
2018-02-16T11:10:44.933Z,13.30
2018-02-16T11:13:13.185Z,13.90
2018-02-16T11:15:41.300Z,13.90
2018-02-16T11:18:09.797Z,14.10
2018-02-16T11:20:37.273Z,13.90
2018-02-16T11:23:04.745Z,13.90
2018-02-16T11:25:32.237Z,14.40
2018-02-16T11:28:00.484Z,15.20
2018-02-16T11:30:27.964Z,15.10
2018-02-16T11:32:56.995Z,15.60
2018-02-16T11:35:24.473Z,15.50
2018-02-16T11:37:51.953Z,15.80
2018-02-16T11:40:19.604Z,16.30
2018-02-16T11:42:46.985Z,16.60
2018-02-16T11:45:15.229Z,15.50
2018-02-16T11:47:42.730Z,15.50
2018-02-16T11:50:10.997Z,13.30
2018-02-16T11:52:39.268Z,13.30
2018-02-16T11:55:07.539Z,13.60
2018-02-16T11:57:35.801Z,13.80
2018-02-16T12:00:03.525Z,13.80
2018-02-16T12:02:31.028Z,14.00
2018-02-16T12:04:58.501Z,14.20
2018-02-16T12:07:26.745Z,14.70
2018-02-16T12:09:54.478Z,14.70
2018-02-16T12:12:21.948Z,14.50
2018-02-16T12:14:49.425Z,13.90
2018-02-16T12:17:16.922Z,13.60
2018-02-16T12:19:44.464Z,13.40
2018-02-16T12:22:12.705Z,13.10
2018-02-16T12:24:40.310Z,13.10
2018-02-16T12:27:08.552Z,13.10
2018-02-16T12:29:36.865Z,12.90
2018-02-16T12:32:04.391Z,12.80
2018-02-16T12:34:31.911Z,12.50
2018-02-16T12:36:59.359Z,12.00
2018-02-16T12:39:26.868Z,11.70
2018-02-16T12:41:54.358Z,11.30
2018-02-16T12:44:21.837Z,11.60
2018-02-16T12:46:49.332Z,12.00
2018-02-16T12:49:16.839Z,12.50
2018-02-16T12:51:44.320Z,12.70
2018-02-16T12:54:11.821Z,12.50
2018-02-16T12:56:39.297Z,12.00
2018-02-16T12:59:07.537Z,11.50
2018-02-16T13:01:35.029Z,11.50
2018-02-16T13:04:02.505Z,11.00
2018-02-16T13:06:29.981Z,10.80
2018-02-16T13:08:57.757Z,10.90
2018-02-16T13:11:25.243Z,11.10
2018-02-16T13:13:52.717Z,11.00
2018-02-16T13:16:21.375Z,11.70
2018-02-16T13:18:48.857Z,11.70
2018-02-16T13:21:17.098Z,11.80
2018-02-16T13:23:44.594Z,11.80
2018-02-16T13:26:12.842Z,12.80
2018-02-16T13:28:40.661Z,12.70
2018-02-16T13:31:09.322Z,13.50
2018-02-16T13:33:37.557Z,14.20
2018-02-16T13:36:05.801Z,14.50
2018-02-16T13:38:34.434Z,14.60
2018-02-16T13:41:02.677Z,14.80
2018-02-16T13:43:30.153Z,14.80
2018-02-16T13:45:58.417Z,15.40
2018-02-16T13:48:25.904Z,15.30
2018-02-16T13:50:54.150Z,15.20
2018-02-16T13:53:21.653Z,15.10
2018-02-16T13:55:49.209Z,15.30
2018-02-16T13:58:16.708Z,15.60
2018-02-16T14:00:44.225Z,15.60
2018-02-16T14:03:12.734Z,15.10
2018-02-16T14:05:40.238Z,15.10
2018-02-16T14:08:08.525Z,13.00
2018-02-16T14:10:36.773Z,13.30
2018-02-16T14:13:04.271Z,13.30
2018-02-16T14:15:32.533Z,13.20
2018-02-16T14:18:00.777Z,13.00
2018-02-16T14:20:28.257Z,13.00
2018-02-16T14:22:56.546Z,12.60
2018-02-16T14:25:24.801Z,12.40
2018-02-16T14:27:53.790Z,12.30
2018-02-16T14:30:21.310Z,12.30
2018-02-16T14:32:48.798Z,12.20
2018-02-16T14:35:16.272Z,12.10
2018-02-16T14:37:43.768Z,12.00
2018-02-16T14:40:11.253Z,11.90
2018-02-16T14:42:38.729Z,11.80
2018-02-16T14:45:06.290Z,11.50
2018-02-16T14:47:33.728Z,11.10
2018-02-16T14:50:01.209Z,11.20
2018-02-16T14:52:29.501Z,11.20
2018-02-16T14:54:57.747Z,11.10
2018-02-16T14:57:25.221Z,11.10
2018-02-16T14:59:52.717Z,10.80
2018-02-16T15:02:20.213Z,10.70
2018-02-16T15:04:47.692Z,10.40
2018-02-16T15:07:15.984Z,10.30
2018-02-16T15:09:44.221Z,10.10
2018-02-16T15:12:11.698Z,10.10
2018-02-16T15:14:40.925Z,9.90
2018-02-16T15:17:08.505Z,9.90
2018-02-16T15:19:35.980Z,9.70
2018-02-16T15:22:03.473Z,9.60
2018-02-16T15:24:30.946Z,9.50
2018-02-16T15:26:59.189Z,9.40
2018-02-16T15:29:26.678Z,9.40
2018-02-16T15:31:54.913Z,9.10
2018-02-16T15:34:22.389Z,9.10
2018-02-16T15:36:49.889Z,9.10
2018-02-16T15:39:17.368Z,9.00
2018-02-16T15:41:44.845Z,8.80
2018-02-16T15:44:13.123Z,8.50
2018-02-16T15:46:40.609Z,8.40
2018-02-16T15:49:08.857Z,8.40
2018-02-16T15:51:36.353Z,8.40
2018-02-16T15:54:04.591Z,8.20
2018-02-16T15:56:32.070Z,8.20
2018-02-16T15:59:00.333Z,7.90
2018-02-16T16:01:28.629Z,7.80
2018-02-16T16:03:56.868Z,7.70
2018-02-16T16:06:24.366Z,7.70
2018-02-16T16:08:52.606Z,7.50
2018-02-16T16:11:21.250Z,7.40
2018-02-16T16:13:48.784Z,7.40
2018-02-16T16:16:17.025Z,7.20
2018-02-16T16:18:44.502Z,7.20
2018-02-16T16:21:12.761Z,7.10
2018-02-16T16:23:40.237Z,7.00
2018-02-16T16:26:08.521Z,6.90
2018-02-16T16:28:36.789Z,6.80
2018-02-16T16:31:05.073Z,6.70
2018-02-16T16:33:33.317Z,6.70
2018-02-16T16:36:00.825Z,6.70
2018-02-16T16:38:28.361Z,6.60
2018-02-16T16:40:56.604Z,6.40
2018-02-16T16:43:24.137Z,6.40
2018-02-16T16:45:51.614Z,6.30
2018-02-16T16:48:19.093Z,6.20
2018-02-16T16:50:46.673Z,6.20
2018-02-16T16:53:14.913Z,6.20
2018-02-16T16:55:42.394Z,6.10
2018-02-16T16:58:10.655Z,5.80
2018-02-16T17:00:38.141Z,5.80
2018-02-16T17:03:06.381Z,5.60
2018-02-16T17:05:35.397Z,5.50
2018-02-16T17:08:03.644Z,5.50
2018-02-16T17:10:31.121Z,5.50
2018-02-16T17:12:58.939Z,5.50
2018-02-16T17:15:26.413Z,5.40
2018-02-16T17:17:53.893Z,5.30
2018-02-16T17:20:21.385Z,5.30
2018-02-16T17:22:49.172Z,5.20
2018-02-16T17:25:16.645Z,5.20
2018-02-16T17:27:44.142Z,5.20
2018-02-16T17:30:12.442Z,5.10
2018-02-16T17:32:39.941Z,5.00
2018-02-16T17:35:07.425Z,5.00
2018-02-16T17:37:36.405Z,4.80
2018-02-16T17:40:03.886Z,4.80
2018-02-16T17:42:32.154Z,4.00
2018-02-16T17:45:00.393Z,4.40
2018-02-16T17:47:27.870Z,4.40
2018-02-16T17:49:55.362Z,4.30
2018-02-16T17:52:23.652Z,4.10
2018-02-16T17:54:51.137Z,4.10
2018-02-16T17:57:18.670Z,4.00
2018-02-16T17:59:46.144Z,4.00
2018-02-16T18:02:13.621Z,4.00
2018-02-16T18:04:41.364Z,4.00
2018-02-16T18:07:08.860Z,4.00
2018-02-16T18:09:36.346Z,4.00
2018-02-16T18:12:03.849Z,4.00
2018-02-16T18:14:31.321Z,3.90
2018-02-16T18:16:58.798Z,3.90
2018-02-16T18:19:27.057Z,3.80
2018-02-16T18:21:54.541Z,3.70
2018-02-16T18:24:22.061Z,3.80
2018-02-16T18:26:49.557Z,3.80
2018-02-16T18:29:17.797Z,3.80
2018-02-16T18:31:45.270Z,3.70
2018-02-16T18:34:12.763Z,3.70
2018-02-16T18:36:40.237Z,3.70
2018-02-16T18:39:07.724Z,3.60
2018-02-16T18:41:35.216Z,3.50
2018-02-16T18:44:03.709Z,3.20
2018-02-16T18:46:31.185Z,3.20
2018-02-16T18:48:58.713Z,3.00
2018-02-16T18:51:26.950Z,3.00
2018-02-16T18:53:54.441Z,3.00
2018-02-16T18:56:22.716Z,3.00
2018-02-16T18:58:50.962Z,3.00
2018-02-16T19:01:18.445Z,2.90
2018-02-16T19:03:46.707Z,3.00
2018-02-16T19:06:14.220Z,3.00
2018-02-16T19:08:41.989Z,3.00
2018-02-16T19:11:09.505Z,2.90
2018-02-16T19:13:37.749Z,2.90
2018-02-16T19:16:05.223Z,2.90
2018-02-16T19:18:32.720Z,2.90
2018-02-16T19:21:00.197Z,2.90
2018-02-16T19:23:27.689Z,2.90
2018-02-16T19:25:55.189Z,2.80
2018-02-16T19:28:22.662Z,2.80
2018-02-16T19:30:50.137Z,2.80
2018-02-16T19:33:17.637Z,2.80
2018-02-16T19:35:45.877Z,2.70
2018-02-16T19:38:13.357Z,2.70
2018-02-16T19:40:40.861Z,2.60
2018-02-16T19:43:08.346Z,2.40
2018-02-16T19:45:35.881Z,2.30
2018-02-16T19:48:03.380Z,2.20
2018-02-16T19:50:30.853Z,2.20
2018-02-16T19:52:59.098Z,2.10
2018-02-16T19:55:26.633Z,2.10
2018-02-16T19:57:54.117Z,2.10
2018-02-16T20:00:21.593Z,2.10
2018-02-16T20:02:49.857Z,2.10
2018-02-16T20:05:17.333Z,2.00
2018-02-16T20:07:44.804Z,2.10
2018-02-16T20:10:13.174Z,2.00
2018-02-16T20:12:41.444Z,1.80
2018-02-16T20:15:09.710Z,1.60
2018-02-16T20:17:37.232Z,1.60
2018-02-16T20:20:04.716Z,1.30
2018-02-16T20:22:32.215Z,1.30
2018-02-16T20:24:59.756Z,1.40
2018-02-16T20:27:28.025Z,1.50
2018-02-16T20:29:56.277Z,1.40
2018-02-16T20:32:23.885Z,1.40
2018-02-16T20:34:51.390Z,1.40
2018-02-16T20:37:18.866Z,1.50
2018-02-16T20:39:46.445Z,1.50
2018-02-16T20:42:14.749Z,1.40
2018-02-16T20:44:42.237Z,1.40
2018-02-16T20:47:09.725Z,1.40
2018-02-16T20:49:38.253Z,1.40
2018-02-16T20:52:05.809Z,1.40
2018-02-16T20:54:33.340Z,1.40
2018-02-16T20:57:00.834Z,1.30
2018-02-16T20:59:28.377Z,1.30
2018-02-16T21:01:55.885Z,1.20
2018-02-16T21:04:23.716Z,1.10
2018-02-16T21:06:51.223Z,1.00
2018-02-16T21:09:19.747Z,1.00
2018-02-16T21:11:47.969Z,0.90
2018-02-16T21:14:16.264Z,0.80
2018-02-16T21:16:43.815Z,0.80
2018-02-16T21:19:11.392Z,0.80
2018-02-16T21:21:38.872Z,0.80
2018-02-16T21:24:06.377Z,0.80
2018-02-16T21:26:33.902Z,0.70
2018-02-16T21:29:01.352Z,0.70
2018-02-16T21:31:28.860Z,0.70
2018-02-16T21:33:57.390Z,0.70
2018-02-16T21:36:24.876Z,0.60
2018-02-16T21:38:52.377Z,0.60
2018-02-16T21:41:19.861Z,0.60
2018-02-16T21:43:47.384Z,0.50
2018-02-16T21:46:15.742Z,0.50
2018-02-16T21:48:44.726Z,0.50
2018-02-16T21:51:12.969Z,0.50
2018-02-16T21:53:40.502Z,0.50
2018-02-16T21:56:08.721Z,0.40
2018-02-16T21:58:36.196Z,0.40
2018-02-16T22:01:03.697Z,0.30
2018-02-16T22:03:31.176Z,0.20
2018-02-16T22:05:58.658Z,0.20
2018-02-16T22:08:26.932Z,0.20
2018-02-16T22:10:55.188Z,0.10
2018-02-16T22:13:22.665Z,0.10
2018-02-16T22:15:50.165Z,0.10
2018-02-16T22:18:17.642Z,0.00
2018-02-16T22:20:45.161Z,0.00
2018-02-16T22:23:13.425Z,-0.20
2018-02-16T22:25:40.913Z,-0.20
2018-02-16T22:28:08.396Z,-0.10
2018-02-16T22:30:35.896Z,-0.10
2018-02-16T22:33:04.437Z,-0.20
2018-02-16T22:35:31.914Z,-0.20
2018-02-16T22:37:59.415Z,-0.20
2018-02-16T22:40:27.664Z,-0.30
2018-02-16T22:42:55.143Z,-0.30
2018-02-16T22:45:22.673Z,-0.40
2018-02-16T22:47:50.156Z,-0.40
2018-02-16T22:52:47.937Z,-0.40
2018-02-16T22:55:16.181Z,-0.60
2018-02-16T22:57:43.657Z,-0.60
2018-02-16T23:00:11.153Z,-0.80
2018-02-16T23:02:38.634Z,-0.70
2018-02-16T23:05:06.389Z,-0.60
2018-02-16T23:07:33.905Z,-0.50
2018-02-16T23:10:02.149Z,-0.50
2018-02-16T23:12:29.631Z,-0.50
2018-02-16T23:14:57.898Z,-0.50
2018-02-16T23:17:25.618Z,-0.50
2018-02-16T23:19:53.104Z,-0.60
2018-02-16T23:22:22.129Z,-0.80
2018-02-16T23:24:50.373Z,-0.70
2018-02-16T23:27:17.853Z,-0.80
2018-02-16T23:29:46.133Z,-1.00
2018-02-16T23:32:14.373Z,-1.00
2018-02-16T23:34:41.849Z,-1.00
2018-02-16T23:37:09.345Z,-0.90
2018-02-16T23:39:36.817Z,-1.00
2018-02-16T23:42:04.293Z,-0.90
2018-02-16T23:44:31.746Z,-0.90
2018-02-16T23:46:59.990Z,-1.20
2018-02-16T23:49:27.473Z,-1.20
2018-02-16T23:51:55.737Z,-1.00
2018-02-16T23:54:23.214Z,-1.00
2018-02-16T23:56:51.465Z,-0.90
2018-02-16T23:59:19.050Z,-0.90
